createdAt,value
2018-02-23T00:00:51.435Z,5.93
2018-02-23T00:03:18.983Z,6.90
2018-02-23T00:05:46.852Z,6.30
2018-02-23T00:08:14.619Z,7.00
2018-02-23T00:10:42.381Z,5.53
2018-02-23T00:13:10.120Z,6.07
2018-02-23T00:15:37.627Z,6.93
2018-02-23T00:18:05.368Z,6.60
2018-02-23T00:20:32.876Z,6.07
2018-02-23T00:23:00.380Z,7.00
2018-02-23T00:25:27.898Z,6.57
2018-02-23T00:27:55.403Z,5.47
2018-02-23T00:30:22.956Z,6.23
2018-02-23T00:32:50.711Z,5.70
2018-02-23T00:35:18.418Z,6.13
2018-02-23T00:37:45.913Z,6.90
2018-02-23T00:40:13.419Z,6.13
2018-02-23T00:42:41.152Z,6.50
2018-02-23T00:45:08.656Z,5.80
2018-02-23T00:47:36.363Z,6.30
2018-02-23T00:50:04.143Z,6.50
2018-02-23T00:52:31.653Z,6.87
2018-02-23T00:54:59.148Z,6.00
2018-02-23T00:57:26.822Z,6.73
2018-02-23T00:59:54.458Z,5.77
2018-02-23T01:02:22.965Z,6.73
2018-02-23T01:04:50.472Z,6.70
2018-02-23T01:07:18.000Z,7.90
2018-02-23T01:09:46.283Z,7.47
2018-02-23T01:12:13.794Z,6.93
2018-02-23T01:14:41.474Z,7.33
2018-02-23T01:17:09.278Z,8.60
2018-02-23T01:19:36.768Z,7.00
2018-02-23T01:22:04.403Z,8.00
2018-02-23T01:24:31.903Z,8.60
2018-02-23T01:26:59.403Z,8.07
2018-02-23T01:29:27.141Z,9.70
2018-02-23T01:31:54.643Z,9.80
2018-02-23T01:34:22.219Z,9.90
2018-02-23T01:36:50.034Z,10.03
2018-02-23T01:39:17.541Z,9.77
2018-02-23T01:41:45.054Z,10.57
2018-02-23T01:44:12.805Z,9.93
2018-02-23T01:46:40.552Z,10.63
2018-02-23T01:49:08.313Z,11.77
2018-02-23T01:51:36.083Z,11.93
2018-02-23T01:54:03.602Z,12.30
2018-02-23T01:56:31.098Z,11.37
2018-02-23T01:58:58.734Z,13.43
2018-02-23T02:01:26.238Z,11.87
2018-02-23T02:03:55.247Z,14.60
2018-02-23T02:06:22.940Z,14.50
2018-02-23T02:08:50.739Z,13.40
2018-02-23T02:11:18.493Z,15.43
2018-02-23T02:13:46.008Z,15.10
2018-02-23T02:16:13.819Z,15.77
2018-02-23T02:18:41.435Z,16.17
2018-02-23T02:21:09.747Z,17.40
2018-02-23T02:23:37.260Z,16.80
2018-02-23T02:26:04.791Z,16.20
2018-02-23T02:28:33.804Z,17.60
2018-02-23T02:31:01.526Z,16.77
2018-02-23T02:33:29.037Z,18.23
2018-02-23T02:35:56.796Z,18.60
2018-02-23T02:38:24.330Z,18.77
2018-02-23T02:40:52.020Z,16.73
2018-02-23T02:43:19.728Z,17.40
2018-02-23T02:45:47.250Z,18.30
2018-02-23T02:48:14.990Z,18.10
2018-02-23T02:50:42.723Z,17.73
2018-02-23T02:53:10.220Z,17.50
2018-02-23T02:55:37.944Z,16.77
2018-02-23T02:58:05.440Z,17.83
2018-02-23T03:00:32.967Z,17.57
2018-02-23T03:03:00.456Z,18.33
2018-02-23T03:05:29.035Z,17.73
2018-02-23T03:07:56.764Z,18.87
2018-02-23T03:10:24.511Z,19.60
2018-02-23T03:12:52.019Z,19.77
2018-02-23T03:15:19.709Z,19.23
2018-02-23T03:17:47.595Z,20.20
2018-02-23T03:20:15.095Z,19.07
2018-02-23T03:22:43.364Z,18.50
2018-02-23T03:25:11.734Z,17.70
2018-02-23T03:27:39.231Z,19.80
2018-02-23T03:30:06.902Z,18.20
2018-02-23T03:32:34.695Z,18.73
2018-02-23T03:35:02.208Z,17.83
2018-02-23T03:37:29.889Z,18.97
2018-02-23T03:39:57.383Z,16.70
2018-02-23T03:42:24.908Z,16.87
2018-02-23T03:44:52.596Z,18.03
2018-02-23T03:47:20.104Z,16.87
2018-02-23T03:49:47.789Z,17.00
2018-02-23T03:52:15.284Z,14.80
2018-02-23T03:54:42.803Z,15.03
2018-02-23T03:57:10.544Z,14.40
2018-02-23T03:59:38.207Z,15.90
2018-02-23T04:02:05.724Z,14.00
2018-02-23T04:04:33.472Z,12.40
2018-02-23T04:07:00.980Z,12.57
2018-02-23T04:09:28.653Z,12.10
2018-02-23T04:11:56.160Z,12.13
2018-02-23T04:14:23.668Z,12.10
2018-02-23T04:16:51.348Z,11.03
2018-02-23T04:19:18.848Z,12.03
2018-02-23T04:21:47.870Z,11.50
2018-02-23T04:24:15.412Z,10.80
2018-02-23T04:26:43.688Z,10.90
2018-02-23T04:29:11.201Z,10.13
2018-02-23T04:31:38.880Z,10.00
2018-02-23T04:34:06.380Z,10.47
2018-02-23T04:36:33.871Z,8.23
2018-02-23T04:39:01.804Z,8.17
2018-02-23T04:41:29.295Z,7.63
2018-02-23T04:43:56.805Z,9.10
2018-02-23T04:46:24.488Z,7.43
2018-02-23T04:48:51.996Z,7.30
2018-02-23T04:51:19.515Z,6.93
2018-02-23T04:53:47.181Z,4.93
2018-02-23T04:56:14.975Z,6.47
2018-02-23T04:58:42.491Z,7.83
2018-02-23T05:01:10.192Z,6.97
2018-02-23T05:03:37.957Z,6.43
2018-02-23T05:06:06.166Z,7.20
2018-02-23T05:08:34.437Z,6.97
2018-02-23T05:11:02.166Z,6.60
2018-02-23T05:13:29.680Z,6.50
2018-02-23T05:15:57.183Z,6.57
2018-02-23T05:18:24.701Z,5.90
2018-02-23T05:20:52.207Z,6.63
2018-02-23T05:23:19.736Z,6.53
2018-02-23T05:25:47.520Z,7.17
2018-02-23T05:28:15.284Z,7.37
2018-02-23T05:30:43.111Z,5.03
2018-02-23T05:33:10.619Z,6.53
2018-02-23T05:35:38.261Z,6.60
2018-02-23T05:38:05.902Z,6.63
2018-02-23T05:40:33.471Z,6.37
2018-02-23T05:43:01.124Z,6.70
2018-02-23T05:45:28.633Z,6.30
2018-02-23T05:47:56.137Z,5.70
2018-02-23T05:50:23.652Z,5.50
2018-02-23T05:52:51.397Z,5.67
2018-02-23T05:55:18.948Z,6.63
2018-02-23T05:57:46.586Z,6.73
2018-02-23T06:00:14.112Z,6.40
2018-02-23T06:02:41.696Z,6.70
2018-02-23T06:05:09.196Z,6.77
2018-02-23T06:07:36.743Z,6.50
2018-02-23T06:10:04.283Z,5.87
2018-02-23T06:12:31.956Z,7.23
2018-02-23T06:14:59.724Z,5.90
2018-02-23T06:17:32.989Z,6.50
2018-02-23T06:20:06.224Z,6.80
2018-02-23T06:22:33.739Z,6.37
2018-02-23T06:25:01.317Z,6.80
2018-02-23T06:27:28.822Z,7.17
2018-02-23T06:29:57.364Z,26.70
2018-02-23T06:32:24.904Z,10.30
2018-02-23T06:34:52.575Z,6.50
2018-02-23T06:37:20.702Z,6.37
2018-02-23T06:39:48.215Z,7.33
2018-02-23T06:42:15.756Z,6.90
2018-02-23T06:44:43.315Z,6.73
2018-02-23T06:47:11.703Z,7.90
2018-02-23T06:49:39.468Z,6.73
2018-02-23T06:52:06.985Z,6.93
2018-02-23T06:54:34.495Z,7.63
2018-02-23T06:57:02.177Z,7.30
2018-02-23T06:59:31.395Z,7.27
2018-02-23T07:01:58.910Z,6.97
2018-02-23T07:04:26.516Z,6.87
2018-02-23T07:06:54.818Z,7.30
2018-02-23T07:09:22.328Z,7.67
2018-02-23T07:11:49.954Z,6.20
2018-02-23T07:14:17.730Z,6.07
2018-02-23T07:16:45.252Z,7.00
2018-02-23T07:19:12.790Z,8.07
2018-02-23T07:21:41.183Z,5.80
2018-02-23T07:24:08.684Z,7.90
2018-02-23T07:26:36.240Z,5.93
2018-02-23T07:29:03.765Z,7.67
2018-02-23T07:31:31.451Z,5.97
2018-02-23T07:33:59.263Z,6.23
2018-02-23T07:36:26.987Z,5.40
2018-02-23T07:38:54.611Z,6.30
2018-02-23T07:41:22.169Z,5.90
2018-02-23T07:43:49.681Z,6.43
2018-02-23T07:46:18.072Z,6.80
2018-02-23T07:48:45.613Z,6.30
2018-02-23T07:51:14.063Z,6.43
2018-02-23T07:53:41.659Z,6.40
2018-02-23T07:56:09.189Z,5.83
2018-02-23T07:58:36.708Z,6.53
2018-02-23T08:01:04.302Z,5.60
2018-02-23T08:03:31.852Z,6.10
2018-02-23T08:05:59.369Z,5.83
2018-02-23T08:08:27.724Z,6.23
2018-02-23T08:10:55.291Z,5.17
2018-02-23T08:13:22.804Z,6.03
2018-02-23T08:15:50.311Z,6.27
2018-02-23T08:18:18.044Z,5.70
2018-02-23T08:20:45.814Z,6.57
2018-02-23T08:23:13.332Z,5.80
2018-02-23T08:25:40.974Z,6.83
2018-02-23T08:28:08.902Z,5.67
2018-02-23T08:30:36.424Z,5.47
2018-02-23T08:33:04.010Z,5.10
2018-02-23T08:35:31.765Z,6.20
2018-02-23T08:37:59.269Z,6.10
2018-02-23T08:40:27.343Z,5.10
2018-02-23T08:42:54.863Z,5.47
2018-02-23T08:45:22.407Z,5.30
2018-02-23T08:47:49.971Z,5.60
2018-02-23T08:50:17.743Z,5.73
2018-02-23T08:52:45.479Z,5.97
2018-02-23T08:55:13.239Z,6.87
2018-02-23T08:57:40.744Z,6.40
2018-02-23T09:00:17.301Z,6.93
2018-02-23T09:02:44.839Z,6.17
2018-02-23T09:05:12.615Z,5.20
2018-02-23T09:07:40.380Z,7.63
2018-02-23T09:10:07.911Z,8.60
2018-02-23T09:12:35.495Z,9.00
2018-02-23T09:15:03.052Z,7.60
2018-02-23T09:17:30.556Z,8.30
2018-02-23T09:19:58.246Z,8.30
2018-02-23T09:22:25.759Z,9.90
2018-02-23T09:24:53.505Z,10.87
2018-02-23T09:27:21.064Z,9.40
2018-02-23T09:29:48.720Z,9.83
2018-02-23T09:32:37.747Z,10.37
2018-02-23T09:35:05.264Z,10.77
2018-02-23T09:37:33.543Z,9.57
2018-02-23T09:40:01.068Z,11.60
2018-02-23T09:42:28.728Z,11.80
2018-02-23T09:44:56.249Z,11.13
2018-02-23T09:47:23.947Z,10.23
2018-02-23T09:49:51.484Z,10.63
2018-02-23T09:52:19.803Z,11.07
2018-02-23T09:54:47.527Z,10.27
2018-02-23T09:57:15.043Z,11.07
2018-02-23T09:59:42.770Z,9.73
2018-02-23T10:02:10.273Z,12.30
2018-02-23T10:04:37.784Z,11.00
2018-02-23T10:07:05.291Z,10.93
2018-02-23T10:09:32.815Z,11.83
2018-02-23T10:12:00.353Z,12.43
2018-02-23T10:14:27.863Z,12.20
2018-02-23T10:16:55.380Z,12.10
2018-02-23T10:19:22.879Z,12.13
2018-02-23T10:21:50.391Z,10.57
2018-02-23T10:24:17.904Z,10.93
2018-02-23T10:26:45.419Z,11.50
2018-02-23T10:29:14.435Z,11.30
2018-02-23T10:31:42.096Z,11.40
2018-02-23T10:34:09.621Z,12.40
2018-02-23T10:36:37.127Z,10.80
2018-02-23T10:39:04.632Z,10.47
2018-02-23T10:41:32.271Z,11.87
2018-02-23T10:43:59.774Z,12.20
2018-02-23T10:46:27.287Z,12.10
2018-02-23T10:48:54.807Z,10.83
2018-02-23T10:51:23.084Z,10.47
2018-02-23T10:53:50.591Z,12.67
2018-02-23T10:56:18.099Z,12.73
2018-02-23T10:58:46.381Z,12.17
2018-02-23T11:01:13.898Z,11.87
2018-02-23T11:03:41.458Z,11.80
2018-02-23T11:06:08.955Z,13.83
2018-02-23T11:08:36.478Z,14.63
2018-02-23T11:11:05.487Z,11.90
2018-02-23T11:13:33.187Z,12.07
2018-02-23T11:16:00.975Z,12.10
2018-02-23T11:18:28.493Z,12.73
2018-02-23T11:20:56.224Z,12.70
2018-02-23T11:23:24.047Z,12.50
2018-02-23T11:25:52.260Z,13.30
2018-02-23T11:28:19.783Z,13.37
2018-02-23T11:30:47.295Z,13.60
2018-02-23T11:33:14.843Z,13.10
2018-02-23T11:35:42.340Z,14.57
2018-02-23T11:38:09.929Z,12.40
2018-02-23T11:40:38.423Z,13.83
2018-02-23T11:43:06.639Z,14.70
2018-02-23T11:45:34.151Z,12.10
2018-02-23T11:48:01.678Z,12.27
2018-02-23T11:50:29.260Z,14.00
2018-02-23T11:52:56.744Z,14.10
2018-02-23T11:55:24.255Z,14.50
2018-02-23T11:57:51.765Z,11.80
2018-02-23T12:00:19.263Z,13.30
2018-02-23T12:02:46.771Z,13.50
2018-02-23T12:05:14.301Z,14.03
2018-02-23T12:07:41.876Z,13.70
2018-02-23T12:10:11.163Z,14.30
2018-02-23T12:12:38.665Z,11.80
2018-02-23T12:15:06.394Z,13.67
2018-02-23T12:17:34.762Z,13.67
2018-02-23T12:20:02.287Z,12.97
2018-02-23T12:22:29.790Z,13.57
2018-02-23T12:24:57.413Z,13.47
2018-02-23T12:27:24.916Z,14.30
2018-02-23T12:29:52.451Z,13.53
2018-02-23T12:32:20.110Z,14.60
2018-02-23T12:34:47.623Z,13.13
2018-02-23T12:37:15.140Z,12.70
2018-02-23T12:39:42.801Z,14.20
2018-02-23T12:42:10.305Z,12.93
2018-02-23T12:44:37.809Z,14.53
2018-02-23T12:47:05.326Z,13.63
2018-02-23T12:49:32.894Z,14.00
2018-02-23T12:52:00.408Z,10.13
2018-02-23T12:54:27.913Z,12.40
2018-02-23T12:56:55.610Z,14.67
2018-02-23T12:59:23.118Z,11.47
2018-02-23T13:01:50.791Z,13.47
2018-02-23T13:04:18.587Z,12.80
2018-02-23T13:06:46.099Z,13.23
2018-02-23T13:09:13.609Z,12.90
2018-02-23T13:11:41.129Z,14.50
2018-02-23T13:14:08.706Z,12.27
2018-02-23T13:16:36.484Z,13.20
2018-02-23T13:19:04.688Z,14.63
2018-02-23T13:21:32.960Z,15.43
2018-02-23T13:24:00.483Z,12.87
2018-02-23T13:26:28.004Z,12.47
2018-02-23T13:28:55.545Z,12.20
2018-02-23T13:31:23.045Z,13.30
2018-02-23T13:33:50.831Z,12.07
2018-02-23T13:36:18.589Z,14.80
2018-02-23T13:38:46.093Z,13.40
2018-02-23T13:41:19.147Z,14.20
2018-02-23T13:43:46.800Z,13.53
2018-02-23T13:46:14.348Z,12.60
2018-02-23T13:48:41.844Z,12.00
2018-02-23T13:51:10.103Z,11.87
2018-02-23T13:53:43.413Z,13.37
2018-02-23T13:56:10.916Z,12.40
2018-02-23T13:58:38.424Z,13.67
2018-02-23T14:01:05.932Z,13.13
2018-02-23T14:03:33.471Z,12.80
2018-02-23T14:06:04.065Z,13.80
2018-02-23T14:08:31.799Z,12.47
2018-02-23T14:10:59.304Z,12.60
2018-02-23T14:13:27.060Z,12.90
2018-02-23T14:15:54.783Z,12.30
2018-02-23T14:18:22.297Z,11.30
2018-02-23T14:20:49.806Z,12.20
2018-02-23T14:23:17.316Z,12.17
2018-02-23T14:25:44.816Z,11.90
2018-02-23T14:28:12.332Z,12.27
2018-02-23T14:30:39.838Z,12.23
2018-02-23T14:33:07.352Z,11.80
2018-02-23T14:35:34.862Z,11.17
2018-02-23T14:38:02.508Z,12.80
2018-02-23T14:40:30.010Z,12.00
2018-02-23T14:42:57.741Z,12.50
2018-02-23T14:45:25.493Z,12.13
2018-02-23T14:47:53.004Z,12.30
2018-02-23T14:50:32.405Z,12.07
2018-02-23T14:53:00.146Z,10.37
2018-02-23T14:55:27.682Z,11.80
2018-02-23T14:57:55.199Z,12.20
2018-02-23T15:00:23.463Z,12.50
2018-02-23T15:02:52.123Z,10.67
2018-02-23T15:05:19.627Z,11.50
2018-02-23T15:07:47.340Z,10.97
2018-02-23T15:10:14.856Z,11.23
2018-02-23T15:12:42.368Z,10.90
2018-02-23T15:15:09.890Z,10.70
2018-02-23T15:17:38.325Z,10.30
2018-02-23T15:20:05.912Z,10.13
2018-02-23T15:22:33.406Z,11.17
2018-02-23T15:25:01.319Z,10.50
2018-02-23T15:27:28.819Z,11.20
2018-02-23T15:29:56.345Z,11.40
2018-02-23T15:32:40.651Z,11.07
2018-02-23T15:35:08.168Z,10.90
2018-02-23T15:37:35.668Z,11.40
2018-02-23T15:40:03.327Z,10.20
2018-02-23T15:42:30.835Z,10.80
2018-02-23T15:44:58.553Z,10.77
2018-02-23T15:47:28.292Z,11.50
2018-02-23T15:49:58.983Z,13.00
2018-02-23T15:52:26.483Z,12.70
2018-02-23T15:54:54.004Z,12.60
2018-02-23T15:57:21.896Z,11.77
2018-02-23T15:59:49.411Z,11.57
2018-02-23T16:02:16.924Z,9.77
2018-02-23T16:04:44.615Z,13.00
2018-02-23T16:07:12.110Z,13.20
2018-02-23T16:09:39.634Z,12.97
2018-02-23T16:12:07.147Z,12.70
2018-02-23T16:14:34.929Z,12.57
2018-02-23T16:17:03.203Z,13.73
2018-02-23T16:19:30.806Z,11.50
2018-02-23T16:21:58.676Z,11.93
2018-02-23T16:24:26.198Z,13.17
2018-02-23T16:26:54.642Z,11.80
2018-02-23T16:29:22.182Z,11.90
2018-02-23T16:31:49.666Z,11.50
2018-02-23T16:34:17.179Z,11.30
2018-02-23T16:36:44.701Z,10.47
2018-02-23T16:39:12.215Z,10.80
2018-02-23T16:41:39.753Z,10.60
2018-02-23T16:44:07.266Z,11.67
2018-02-23T16:46:34.769Z,12.10
2018-02-23T16:49:02.278Z,13.40
2018-02-23T16:51:29.791Z,11.53
2018-02-23T16:53:58.213Z,10.80
2018-02-23T16:56:26.782Z,10.10
2018-02-23T16:58:54.275Z,10.33
2018-02-23T17:01:21.987Z,13.00
2018-02-23T17:03:49.751Z,10.20
2018-02-23T17:06:17.351Z,9.73
2018-02-23T17:08:46.245Z,7.70
2018-02-23T17:11:13.984Z,8.60
2018-02-23T17:13:41.733Z,7.87
2018-02-23T17:16:09.258Z,9.23
2018-02-23T17:18:36.775Z,8.17
2018-02-23T17:21:05.803Z,7.83
2018-02-23T17:23:33.376Z,8.80
2018-02-23T17:26:00.867Z,6.40
2018-02-23T17:28:28.568Z,6.80
2018-02-23T17:30:56.675Z,7.23
2018-02-23T17:33:24.180Z,7.50
2018-02-23T17:35:52.487Z,6.13
2018-02-23T17:38:20.099Z,5.73
2018-02-23T17:40:47.600Z,4.87
2018-02-23T17:43:15.126Z,5.03
2018-02-23T17:45:42.627Z,6.63
2018-02-23T17:48:10.132Z,5.37
2018-02-23T17:50:37.863Z,6.90
2018-02-23T17:53:05.629Z,8.07
2018-02-23T17:55:33.234Z,6.47
2018-02-23T17:58:00.720Z,6.00
2018-02-23T18:00:28.228Z,6.20
2018-02-23T18:02:55.738Z,5.57
2018-02-23T18:05:23.233Z,5.83
2018-02-23T18:07:52.452Z,7.20
2018-02-23T18:10:19.951Z,5.20
2018-02-23T18:12:47.456Z,5.50
2018-02-23T18:15:14.975Z,6.17
2018-02-23T18:17:42.495Z,6.37
2018-02-23T18:20:10.764Z,5.53
2018-02-23T18:22:39.480Z,6.03
2018-02-23T18:25:07.179Z,5.80
2018-02-23T18:27:34.704Z,5.87
2018-02-23T18:30:02.392Z,5.83
2018-02-23T18:32:29.922Z,5.40
2018-02-23T18:34:57.609Z,5.10
2018-02-23T18:37:25.103Z,6.13
2018-02-23T18:39:52.807Z,5.67
2018-02-23T18:42:20.313Z,6.00
2018-02-23T18:44:48.642Z,7.00
2018-02-23T18:47:16.302Z,6.00
2018-02-23T18:49:43.812Z,5.67
2018-02-23T18:52:11.319Z,7.00
2018-02-23T18:54:38.831Z,6.83
2018-02-23T18:57:07.829Z,6.20
2018-02-23T18:59:35.566Z,5.60
2018-02-23T19:02:03.332Z,6.40
2018-02-23T19:04:30.845Z,6.87
2018-02-23T19:06:58.331Z,6.73
2018-02-23T19:09:25.966Z,6.20
2018-02-23T19:11:53.471Z,6.77
2018-02-23T19:14:20.977Z,7.40
2018-02-23T19:16:48.616Z,6.30
2018-02-23T19:19:16.141Z,6.10
2018-02-23T19:21:43.655Z,7.00
2018-02-23T19:24:11.161Z,7.03
2018-02-23T19:26:38.673Z,7.23
2018-02-23T19:29:06.183Z,7.77
2018-02-23T19:31:33.680Z,7.17
2018-02-23T19:34:01.821Z,7.40
2018-02-23T19:36:29.308Z,6.20
2018-02-23T19:38:56.830Z,5.87
2018-02-23T19:41:24.321Z,7.90
2018-02-23T19:43:53.088Z,7.10
2018-02-23T19:46:20.603Z,7.10
2018-02-23T19:48:48.128Z,6.33
2018-02-23T19:51:15.855Z,7.10
2018-02-23T19:53:43.380Z,6.83
2018-02-23T19:56:10.867Z,6.77
2018-02-23T19:58:38.372Z,7.20
2018-02-23T20:01:05.969Z,6.73
2018-02-23T20:03:33.471Z,6.70
2018-02-23T20:06:01.523Z,7.20
2018-02-23T20:08:29.799Z,6.63
2018-02-23T20:10:57.372Z,7.20
2018-02-23T20:13:25.095Z,6.23
2018-02-23T20:15:52.616Z,6.90
2018-02-23T20:18:20.481Z,7.70
2018-02-23T20:20:48.364Z,6.57
2018-02-23T20:23:15.884Z,6.50
2018-02-23T20:25:43.404Z,6.67
2018-02-23T20:28:10.924Z,7.10
2018-02-23T20:30:38.502Z,7.03
2018-02-23T20:33:06.012Z,7.73
2018-02-23T20:35:33.741Z,7.03
2018-02-23T20:38:01.262Z,7.10
2018-02-23T20:40:28.779Z,7.20
2018-02-23T20:42:57.346Z,7.60
2018-02-23T20:45:24.861Z,7.20
2018-02-23T20:47:52.571Z,6.10
2018-02-23T20:50:20.305Z,6.83
2018-02-23T20:52:47.824Z,7.17
2018-02-23T20:55:15.541Z,6.60
2018-02-23T20:57:44.703Z,7.40
2018-02-23T21:00:12.259Z,6.60
2018-02-23T21:02:40.327Z,7.67
2018-02-23T21:05:07.827Z,7.37
2018-02-23T21:07:35.620Z,7.57
2018-02-23T21:10:03.354Z,6.47
2018-02-23T21:12:30.894Z,6.87
2018-02-23T21:14:58.564Z,7.33
2018-02-23T21:17:26.080Z,7.50
2018-02-23T21:19:53.797Z,7.43
2018-02-23T21:22:21.870Z,5.87
2018-02-23T21:24:50.897Z,6.53
2018-02-23T21:27:18.411Z,7.07
2018-02-23T21:29:45.935Z,6.27
2018-02-23T21:32:13.755Z,7.17
2018-02-23T21:34:41.289Z,7.70
2018-02-23T21:37:08.796Z,7.20
2018-02-23T21:39:36.326Z,7.70
2018-02-23T21:42:03.837Z,7.10
2018-02-23T21:44:43.440Z,7.23
2018-02-23T21:47:10.972Z,7.23
2018-02-23T21:49:38.591Z,6.97
2018-02-23T21:52:06.108Z,7.57
2018-02-23T21:54:33.619Z,7.80
2018-02-23T21:57:01.197Z,7.50
2018-02-23T21:59:28.730Z,7.60
2018-02-23T22:01:56.278Z,6.70
2018-02-23T22:04:23.793Z,7.20
2018-02-23T22:06:51.456Z,8.33
2018-02-23T22:09:18.969Z,7.90
2018-02-23T22:11:46.509Z,7.60
2018-02-23T22:14:14.522Z,8.33
2018-02-23T22:16:42.039Z,7.20
2018-02-23T22:19:09.552Z,7.63
2018-02-23T22:21:37.059Z,7.30
2018-02-23T22:24:04.864Z,7.50
2018-02-23T22:26:32.384Z,7.20
2018-02-23T22:29:00.078Z,7.47
2018-02-23T22:31:27.844Z,7.60
2018-02-23T22:33:55.377Z,7.10
2018-02-23T22:36:23.025Z,7.27
2018-02-23T22:38:50.826Z,8.07
2018-02-23T22:41:18.348Z,7.13
2018-02-23T22:43:46.020Z,8.17
2018-02-23T22:46:13.795Z,7.97
2018-02-23T22:48:41.327Z,7.27
2018-02-23T22:51:08.828Z,7.77
2018-02-23T22:53:36.350Z,7.83
2018-02-23T22:56:03.928Z,7.50
2018-02-23T22:58:31.452Z,7.37
2018-02-23T23:00:58.959Z,7.60
2018-02-23T23:03:26.467Z,8.13
2018-02-23T23:05:54.053Z,8.10
2018-02-23T23:08:21.824Z,7.63
2018-02-23T23:10:49.373Z,7.67
2018-02-23T23:13:17.052Z,6.93
2018-02-23T23:15:44.568Z,7.47
2018-02-23T23:18:12.079Z,7.63
2018-02-23T23:20:39.605Z,7.17
2018-02-23T23:23:07.159Z,7.40
2018-02-23T23:25:34.659Z,7.53
2018-02-23T23:28:03.098Z,7.90
2018-02-23T23:30:30.602Z,6.97
2018-02-23T23:32:58.238Z,6.97
2018-02-23T23:35:25.743Z,6.87
2018-02-23T23:37:53.452Z,7.10
2018-02-23T23:40:20.956Z,8.00
2018-02-23T23:42:48.674Z,7.83
2018-02-23T23:45:16.448Z,7.03
2018-02-23T23:47:44.239Z,7.80
2018-02-23T23:50:11.720Z,7.07
2018-02-23T23:52:39.230Z,7.30
2018-02-23T23:55:06.883Z,6.20
2018-02-23T23:57:34.396Z,7.33
